Terminal Aerodrome Forecast
Issued by NWS

Home | Current Version | Previous Version | Text Only | Print | Product List | Glossary On
Versions: 1 2 3 4 5 6 7 8 9 10 11 12 13 14 15
000
FTUS46 KMFR 182300
TAFRBG
TAF
KRBG 182339Z 1900/1924 35004KT P6SM SCT035 BKN080
     FM190800 36002KT 5SM BR SCT006 BKN020
     FM191200 00000KT 3SM BR SCT005 OVC017
     FM191700 36003KT P6SM BKN020
     FM191800 01004KT P6SM SCT025=

USA.gov is the U.S. government's official web portal to all federal, state and local government web resources and services.